createdAt,value
2017-06-26T00:00:33.740Z,15.50
2017-06-26T00:03:01.318Z,15.40
2017-06-26T00:05:28.878Z,15.40
2017-06-26T00:07:56.437Z,15.40
2017-06-26T00:10:23.998Z,15.30
2017-06-26T00:12:51.541Z,15.30
2017-06-26T00:15:19.105Z,15.40
2017-06-26T00:17:46.686Z,15.40
2017-06-26T00:20:14.250Z,15.40
2017-06-26T00:22:41.783Z,15.40
2017-06-26T00:25:09.361Z,15.30
2017-06-26T00:27:36.917Z,15.30
2017-06-26T00:30:04.579Z,15.20
2017-06-26T00:32:32.123Z,15.30
2017-06-26T00:34:59.716Z,15.30
2017-06-26T00:37:27.334Z,15.30
2017-06-26T00:39:54.926Z,15.30
2017-06-26T00:42:22.494Z,15.40
2017-06-26T00:44:50.054Z,15.30
2017-06-26T00:47:17.621Z,15.30
2017-06-26T00:49:45.269Z,15.30
2017-06-26T00:52:12.838Z,15.20
2017-06-26T00:54:40.490Z,15.30
2017-06-26T00:57:08.068Z,15.30
2017-06-26T00:59:35.731Z,15.30
2017-06-26T01:02:03.273Z,15.30
2017-06-26T01:04:30.951Z,15.30
2017-06-26T01:06:58.519Z,15.30
2017-06-26T01:09:26.174Z,15.30
2017-06-26T01:11:53.733Z,15.30
2017-06-26T01:14:21.270Z,15.30
2017-06-26T01:16:48.810Z,15.30
2017-06-26T01:19:17.110Z,15.30
2017-06-26T01:21:44.690Z,15.30
2017-06-26T01:24:12.349Z,15.30
2017-06-26T01:26:39.885Z,15.30
2017-06-26T01:29:07.428Z,15.40
2017-06-26T01:31:35.762Z,15.30
2017-06-26T01:34:03.312Z,15.30
2017-06-26T01:36:30.874Z,15.40
2017-06-26T01:38:58.446Z,15.40
2017-06-26T01:41:25.994Z,15.40
2017-06-26T01:43:53.533Z,15.40
2017-06-26T01:46:21.126Z,15.40
2017-06-26T01:48:48.677Z,15.40
2017-06-26T01:51:16.238Z,15.40
2017-06-26T01:53:43.768Z,15.40
2017-06-26T01:56:11.368Z,15.40
2017-06-26T01:58:38.902Z,15.40
2017-06-26T02:01:06.437Z,15.40
2017-06-26T02:03:34.746Z,15.40
2017-06-26T02:06:02.327Z,15.40
2017-06-26T02:08:29.879Z,15.50
2017-06-26T02:10:57.419Z,15.40
2017-06-26T02:13:24.954Z,15.50
2017-06-26T02:15:53.290Z,15.60
2017-06-26T02:18:20.847Z,15.50
2017-06-26T02:20:48.382Z,15.60
2017-06-26T02:23:15.919Z,15.60
2017-06-26T02:25:44.247Z,15.60
2017-06-26T02:28:11.814Z,15.60
2017-06-26T02:30:39.361Z,15.60
2017-06-26T02:33:06.928Z,15.60
2017-06-26T02:35:34.490Z,15.50
2017-06-26T02:38:02.050Z,15.50
2017-06-26T02:40:29.609Z,15.50
2017-06-26T02:42:57.142Z,15.50
2017-06-26T02:45:24.739Z,15.50
2017-06-26T02:47:52.298Z,15.50
2017-06-26T02:50:19.959Z,15.50
2017-06-26T02:52:47.510Z,15.50
2017-06-26T02:55:15.083Z,15.60
2017-06-26T02:57:42.635Z,15.60
2017-06-26T03:00:10.168Z,15.50
2017-06-26T03:02:37.758Z,15.50
2017-06-26T03:05:05.318Z,15.30
2017-06-26T03:07:32.855Z,15.10
2017-06-26T03:10:00.449Z,14.80
2017-06-26T03:12:27.985Z,14.60
2017-06-26T03:14:55.522Z,14.50
2017-06-26T03:17:23.059Z,14.40
2017-06-26T03:19:50.598Z,14.40
2017-06-26T03:22:18.145Z,14.30
2017-06-26T03:24:45.677Z,14.10
2017-06-26T03:27:13.267Z,14.10
2017-06-26T03:29:40.794Z,14.10
2017-06-26T03:32:08.336Z,14.10
2017-06-26T03:34:36.663Z,13.90
2017-06-26T03:37:04.207Z,13.90
2017-06-26T03:39:31.737Z,14.00
2017-06-26T03:42:00.064Z,14.00
2017-06-26T03:44:27.617Z,14.00
2017-06-26T03:46:55.188Z,14.10
2017-06-26T03:49:22.726Z,14.20
2017-06-26T03:51:50.271Z,14.20
2017-06-26T03:54:17.810Z,14.20
2017-06-26T03:56:46.175Z,14.20
2017-06-26T03:59:13.706Z,14.20
2017-06-26T04:01:41.263Z,14.30
2017-06-26T04:04:08.826Z,14.20
2017-06-26T04:06:36.445Z,14.20
2017-06-26T04:09:03.992Z,14.20
2017-06-26T04:11:32.318Z,14.40
2017-06-26T04:13:59.849Z,14.40
2017-06-26T04:16:27.450Z,14.50
2017-06-26T04:18:55.002Z,14.50
2017-06-26T04:21:22.672Z,14.50
2017-06-26T04:23:50.202Z,14.60
2017-06-26T04:26:17.789Z,14.60
2017-06-26T04:28:45.358Z,14.50
2017-06-26T04:31:12.894Z,14.50
2017-06-26T04:33:40.479Z,14.60
2017-06-26T04:36:08.038Z,14.50
2017-06-26T04:38:35.565Z,14.50
2017-06-26T04:41:03.094Z,14.50
2017-06-26T04:43:30.626Z,14.70
2017-06-26T04:45:58.169Z,14.90
2017-06-26T04:48:25.734Z,15.00
2017-06-26T04:50:53.294Z,14.80
2017-06-26T04:53:20.850Z,14.90
2017-06-26T04:55:48.414Z,14.90
2017-06-26T04:58:15.946Z,15.00
2017-06-26T05:00:43.501Z,15.00
2017-06-26T05:03:11.043Z,15.20
2017-06-26T05:05:39.381Z,15.60
2017-06-26T05:08:06.915Z,15.60
2017-06-26T05:10:34.444Z,15.60
2017-06-26T05:13:02.775Z,16.00
2017-06-26T05:15:30.348Z,15.90
2017-06-26T05:17:57.917Z,16.00
2017-06-26T05:20:25.491Z,16.00
2017-06-26T05:22:53.050Z,16.20
2017-06-26T05:25:20.579Z,16.00
2017-06-26T05:27:48.142Z,15.90
2017-06-26T05:30:15.681Z,15.90
2017-06-26T05:32:43.266Z,15.90
2017-06-26T05:35:10.826Z,16.20
2017-06-26T05:37:38.486Z,17.60
2017-06-26T05:40:06.069Z,17.80
2017-06-26T05:42:33.646Z,19.30
2017-06-26T05:45:01.187Z,20.20
2017-06-26T05:47:28.744Z,21.40
2017-06-26T05:49:56.271Z,23.00
2017-06-26T05:52:23.862Z,22.90
2017-06-26T05:54:51.430Z,24.60
2017-06-26T05:57:18.986Z,24.90
2017-06-26T05:59:46.520Z,23.60
2017-06-26T06:02:14.046Z,23.60
2017-06-26T06:04:42.349Z,22.20
2017-06-26T06:07:09.942Z,22.20
2017-06-26T06:09:37.485Z,21.20
2017-06-26T06:12:05.014Z,20.10
2017-06-26T06:14:33.316Z,18.80
2017-06-26T06:17:00.898Z,18.80
2017-06-26T06:19:28.458Z,18.40
2017-06-26T06:21:55.994Z,18.40
2017-06-26T06:24:23.574Z,19.10
2017-06-26T06:26:51.142Z,21.30
2017-06-26T06:29:18.698Z,20.80
2017-06-26T06:31:46.231Z,19.80
2017-06-26T06:34:13.818Z,19.50
2017-06-26T06:36:42.208Z,20.50
2017-06-26T06:39:09.772Z,22.10
2017-06-26T06:41:37.326Z,22.40
2017-06-26T06:44:04.961Z,23.30
2017-06-26T06:46:32.546Z,24.50
2017-06-26T06:49:00.209Z,24.20
2017-06-26T06:51:40.671Z,24.90
2017-06-26T06:54:08.282Z,24.70
2017-06-26T06:56:36.593Z,26.50
2017-06-26T06:59:04.149Z,26.40
2017-06-26T07:01:31.737Z,26.40
2017-06-26T07:03:59.297Z,26.80
2017-06-26T07:06:26.833Z,26.70
2017-06-26T07:08:54.518Z,26.60
2017-06-26T07:11:22.057Z,23.90
2017-06-26T07:13:49.638Z,21.70
2017-06-26T07:16:17.174Z,22.60
2017-06-26T07:18:44.773Z,24.50
2017-06-26T07:21:12.334Z,25.70
2017-06-26T07:23:39.894Z,23.20
2017-06-26T07:26:07.446Z,21.90
2017-06-26T07:28:35.009Z,20.50
2017-06-26T07:31:02.572Z,21.90
2017-06-26T07:33:30.135Z,22.60
2017-06-26T07:35:57.677Z,21.20
2017-06-26T07:38:25.254Z,21.60
2017-06-26T07:40:52.786Z,23.60
2017-06-26T07:43:20.362Z,23.10
2017-06-26T07:45:47.935Z,23.40
2017-06-26T07:48:15.494Z,21.70
2017-06-26T07:50:43.030Z,21.30
2017-06-26T07:53:10.622Z,20.80
2017-06-26T07:55:38.151Z,21.10
2017-06-26T07:58:05.828Z,20.30
2017-06-26T08:00:33.363Z,19.70
2017-06-26T08:03:00.970Z,18.80
2017-06-26T08:05:28.518Z,18.80
2017-06-26T08:07:56.085Z,18.70
2017-06-26T08:10:23.642Z,18.40
2017-06-26T08:12:51.173Z,18.20
2017-06-26T08:15:18.707Z,18.30
2017-06-26T08:17:47.003Z,18.40
2017-06-26T08:20:14.542Z,18.30
2017-06-26T08:22:42.088Z,18.70
2017-06-26T08:25:09.627Z,19.00
2017-06-26T08:27:37.191Z,19.10
2017-06-26T08:30:04.739Z,19.60
2017-06-26T08:32:32.306Z,20.90
2017-06-26T08:34:59.838Z,22.70
2017-06-26T08:37:28.248Z,23.60
2017-06-26T08:39:55.823Z,23.80
2017-06-26T08:42:23.363Z,22.70
2017-06-26T08:44:50.922Z,21.70
2017-06-26T08:47:18.453Z,20.90
2017-06-26T08:49:46.046Z,20.40
2017-06-26T08:52:13.621Z,19.60
2017-06-26T08:54:41.183Z,19.50
2017-06-26T08:57:08.722Z,19.90
2017-06-26T08:59:36.282Z,21.30
2017-06-26T09:02:20.641Z,21.10
2017-06-26T09:04:48.307Z,20.70
2017-06-26T09:07:15.875Z,21.30
2017-06-26T09:09:43.433Z,22.30
2017-06-26T09:12:10.976Z,23.10
2017-06-26T09:14:38.550Z,22.80
2017-06-26T09:17:06.083Z,22.20
2017-06-26T09:19:33.682Z,22.30
2017-06-26T09:22:01.242Z,22.70
2017-06-26T09:24:28.806Z,23.50
2017-06-26T09:26:56.334Z,24.00
2017-06-26T09:29:23.870Z,24.30
2017-06-26T09:31:52.196Z,25.10
2017-06-26T09:34:19.726Z,25.10
2017-06-26T09:36:47.254Z,23.80
2017-06-26T09:39:14.783Z,23.50
2017-06-26T09:41:42.338Z,22.80
2017-06-26T09:44:09.862Z,22.10
2017-06-26T09:46:37.510Z,21.60
2017-06-26T09:49:05.846Z,21.00
2017-06-26T09:51:33.382Z,20.90
2017-06-26T09:54:00.910Z,20.40
2017-06-26T09:56:29.238Z,21.30
2017-06-26T09:58:56.801Z,21.30
2017-06-26T10:01:24.355Z,22.30
2017-06-26T10:03:51.890Z,22.80
2017-06-26T10:06:19.442Z,22.60
2017-06-26T10:08:46.982Z,22.20
2017-06-26T10:11:15.326Z,21.50
2017-06-26T10:13:42.881Z,21.40
2017-06-26T10:16:10.437Z,21.70
2017-06-26T10:18:37.968Z,22.70
2017-06-26T10:21:05.546Z,23.80
2017-06-26T10:23:33.075Z,24.40
2017-06-26T10:26:01.697Z,23.90
2017-06-26T10:28:35.714Z,23.90
2017-06-26T10:31:03.274Z,24.00
2017-06-26T10:33:30.810Z,24.30
2017-06-26T10:35:58.398Z,23.80
2017-06-26T10:38:25.935Z,23.60
2017-06-26T10:40:53.534Z,23.50
2017-06-26T10:43:21.191Z,23.40
2017-06-26T10:45:48.759Z,23.40
2017-06-26T10:48:16.315Z,23.90
2017-06-26T10:50:43.874Z,24.30
2017-06-26T10:53:11.434Z,24.30
2017-06-26T10:55:38.996Z,23.20
2017-06-26T10:58:06.555Z,22.40
2017-06-26T11:00:34.094Z,22.00
2017-06-26T11:03:01.695Z,21.90
2017-06-26T11:05:29.334Z,21.70
2017-06-26T11:07:56.894Z,21.90
2017-06-26T11:10:24.456Z,21.60
2017-06-26T11:12:52.018Z,21.70
2017-06-26T11:15:19.559Z,21.40
2017-06-26T11:17:47.095Z,21.10
2017-06-26T11:20:15.392Z,21.40
2017-06-26T11:22:42.957Z,21.30
2017-06-26T11:25:10.548Z,21.90
2017-06-26T11:27:41.163Z,21.80
2017-06-26T11:30:08.694Z,22.10
2017-06-26T11:32:36.285Z,23.00
2017-06-26T11:35:03.851Z,22.70
2017-06-26T11:37:31.515Z,22.20
2017-06-26T11:39:59.083Z,22.20
2017-06-26T11:42:26.738Z,23.10
2017-06-26T11:44:54.302Z,23.70
2017-06-26T11:47:21.969Z,23.10
2017-06-26T11:49:49.538Z,22.30
2017-06-26T11:52:17.190Z,21.60
2017-06-26T11:54:44.767Z,21.60
2017-06-26T11:57:12.333Z,22.50
2017-06-26T11:59:39.978Z,22.40
2017-06-26T12:02:07.538Z,22.70
2017-06-26T12:04:35.074Z,21.80
2017-06-26T12:07:02.630Z,21.80
2017-06-26T12:09:30.221Z,22.70
2017-06-26T12:11:57.783Z,23.10
2017-06-26T12:14:25.340Z,23.20
2017-06-26T12:16:52.895Z,22.70
2017-06-26T12:19:20.427Z,22.20
2017-06-26T12:21:48.032Z,21.90
2017-06-26T12:24:15.587Z,21.70
2017-06-26T12:26:43.250Z,21.70
2017-06-26T12:29:10.794Z,22.50
2017-06-26T12:31:38.326Z,23.00
2017-06-26T12:34:05.924Z,23.10
2017-06-26T12:36:33.481Z,22.80
2017-06-26T12:39:01.059Z,23.20
2017-06-26T12:41:28.598Z,23.00
2017-06-26T12:43:56.154Z,23.20
2017-06-26T12:46:23.684Z,23.20
2017-06-26T12:48:51.296Z,23.00
2017-06-26T12:51:18.854Z,22.70
2017-06-26T12:53:46.386Z,23.20
2017-06-26T12:56:13.917Z,23.80
2017-06-26T12:58:42.258Z,24.00
2017-06-26T13:01:09.814Z,24.00
2017-06-26T13:03:37.341Z,23.90
2017-06-26T13:06:04.938Z,22.90
2017-06-26T13:08:32.467Z,22.40
2017-06-26T13:10:59.993Z,22.10
2017-06-26T13:13:28.297Z,22.10
2017-06-26T13:15:55.834Z,22.10
2017-06-26T13:18:24.164Z,23.60
2017-06-26T13:20:51.698Z,23.60
2017-06-26T13:23:19.300Z,23.80
2017-06-26T13:25:46.858Z,24.00
2017-06-26T13:28:14.414Z,23.50
2017-06-26T13:30:41.947Z,23.50
2017-06-26T13:33:09.538Z,23.60
2017-06-26T13:35:37.066Z,23.60
2017-06-26T13:38:04.593Z,23.70
2017-06-26T13:40:32.122Z,23.50
2017-06-26T13:42:59.684Z,23.80
2017-06-26T13:45:27.246Z,23.80
2017-06-26T13:47:54.818Z,23.80
2017-06-26T13:50:22.458Z,23.20
2017-06-26T13:52:50.030Z,23.70
2017-06-26T13:55:17.559Z,23.40
2017-06-26T13:57:45.138Z,23.50
2017-06-26T14:00:12.674Z,23.70
2017-06-26T14:02:40.226Z,23.00
2017-06-26T14:05:07.826Z,22.80
2017-06-26T14:07:35.366Z,23.70
2017-06-26T14:10:02.950Z,24.40
2017-06-26T14:12:30.478Z,24.00
2017-06-26T14:14:58.070Z,23.20
2017-06-26T14:17:25.630Z,22.40
2017-06-26T14:19:53.194Z,21.90
2017-06-26T14:22:20.757Z,21.60
2017-06-26T14:24:48.318Z,21.80
2017-06-26T14:27:15.874Z,21.90
2017-06-26T14:29:43.434Z,22.50
2017-06-26T14:32:10.967Z,22.70
2017-06-26T14:34:38.550Z,22.60
2017-06-26T14:37:06.115Z,22.90
2017-06-26T14:39:33.776Z,22.90
2017-06-26T14:42:01.312Z,22.80
2017-06-26T14:44:28.878Z,22.70
2017-06-26T14:46:56.410Z,22.70
2017-06-26T14:49:24.846Z,22.40
2017-06-26T14:51:52.403Z,22.40
2017-06-26T14:54:20.069Z,22.00
2017-06-26T14:56:47.615Z,22.50
2017-06-26T14:59:15.183Z,22.70
2017-06-26T15:01:42.722Z,23.00
2017-06-26T15:04:10.259Z,23.10
2017-06-26T15:06:38.589Z,23.10
2017-06-26T15:09:06.122Z,23.10
2017-06-26T15:11:33.658Z,23.20
2017-06-26T15:14:02.085Z,22.80
2017-06-26T15:16:29.650Z,22.70
2017-06-26T15:18:57.186Z,22.40
2017-06-26T15:21:24.766Z,22.30
2017-06-26T15:23:52.335Z,22.40
2017-06-26T15:26:19.886Z,22.40
2017-06-26T15:28:47.446Z,22.10
2017-06-26T15:31:14.980Z,21.80
2017-06-26T15:33:42.569Z,21.60
2017-06-26T15:36:10.131Z,21.50
2017-06-26T15:38:37.690Z,21.40
2017-06-26T15:41:05.251Z,21.40
2017-06-26T15:43:32.819Z,21.40
2017-06-26T15:46:00.374Z,21.80
2017-06-26T15:48:27.903Z,22.20
2017-06-26T15:50:55.495Z,22.80
2017-06-26T15:53:23.062Z,22.80
2017-06-26T15:55:50.590Z,22.80
2017-06-26T15:58:18.186Z,22.70
2017-06-26T16:00:45.739Z,22.50
2017-06-26T16:03:13.298Z,22.40
2017-06-26T16:05:40.858Z,22.30
2017-06-26T16:08:08.432Z,22.30
2017-06-26T16:10:35.967Z,22.30
2017-06-26T16:13:03.496Z,22.50
2017-06-26T16:15:31.918Z,22.30
2017-06-26T16:17:59.490Z,22.30
2017-06-26T16:20:27.047Z,22.30
2017-06-26T16:22:54.590Z,22.10
2017-06-26T16:25:22.177Z,22.10
2017-06-26T16:27:49.706Z,22.20
2017-06-26T16:30:17.242Z,22.40
2017-06-26T16:32:45.571Z,22.60
2017-06-26T16:35:13.135Z,22.50
2017-06-26T16:37:40.709Z,22.50
2017-06-26T16:40:08.327Z,22.00
2017-06-26T16:42:35.917Z,21.80
2017-06-26T16:45:03.485Z,21.60
2017-06-26T16:47:31.028Z,21.50
2017-06-26T16:49:58.934Z,21.40
2017-06-26T16:52:26.569Z,21.20
2017-06-26T16:54:54.102Z,21.20
2017-06-26T16:57:21.631Z,21.20
2017-06-26T16:59:49.954Z,20.70
2017-06-26T17:02:17.495Z,20.70
2017-06-26T17:04:45.111Z,20.50
2017-06-26T17:07:12.646Z,20.40
2017-06-26T17:09:40.179Z,20.40
2017-06-26T17:12:07.723Z,20.40
2017-06-26T17:14:36.035Z,20.60
2017-06-26T17:17:03.613Z,20.50
2017-06-26T17:19:31.163Z,20.60
2017-06-26T17:21:58.847Z,20.30
2017-06-26T17:24:26.397Z,20.10
2017-06-26T17:26:54.058Z,20.30
2017-06-26T17:29:21.586Z,20.20
2017-06-26T17:31:49.192Z,20.30
2017-06-26T17:34:16.746Z,20.20
2017-06-26T17:36:44.298Z,20.20
2017-06-26T17:39:11.874Z,20.10
2017-06-26T17:41:39.514Z,20.10
2017-06-26T17:44:07.090Z,20.10
2017-06-26T17:46:34.742Z,20.00
2017-06-26T17:49:02.283Z,19.80
2017-06-26T17:51:29.870Z,19.70
2017-06-26T17:53:57.435Z,19.80
2017-06-26T17:56:25.002Z,19.60
2017-06-26T17:58:52.542Z,19.60
2017-06-26T18:01:20.082Z,19.50
2017-06-26T18:03:47.677Z,19.40
2017-06-26T18:06:15.222Z,19.30
2017-06-26T18:08:42.793Z,19.30
2017-06-26T18:11:10.356Z,19.20
2017-06-26T18:13:37.918Z,19.10
2017-06-26T18:16:05.465Z,19.00
2017-06-26T18:18:32.989Z,19.00
2017-06-26T18:21:01.317Z,18.90
2017-06-26T18:23:28.888Z,18.90
2017-06-26T18:25:56.432Z,18.90
2017-06-26T18:28:24.022Z,18.80
2017-06-26T18:30:51.558Z,18.80
2017-06-26T18:33:19.150Z,18.80
2017-06-26T18:35:46.698Z,18.60
2017-06-26T18:38:14.245Z,18.50
2017-06-26T18:40:41.783Z,18.50
2017-06-26T18:43:09.349Z,18.30
2017-06-26T18:45:36.886Z,18.30
2017-06-26T18:48:04.438Z,18.20
2017-06-26T18:50:32.762Z,18.10
2017-06-26T18:53:00.338Z,18.10
2017-06-26T18:55:27.898Z,18.00
2017-06-26T18:57:55.566Z,17.90
2017-06-26T19:00:23.101Z,17.90
2017-06-26T19:02:50.681Z,17.90
2017-06-26T19:05:18.223Z,17.70
2017-06-26T19:07:45.814Z,17.60
2017-06-26T19:10:13.378Z,17.50
2017-06-26T19:12:40.915Z,17.50
2017-06-26T19:15:08.500Z,17.40
2017-06-26T19:17:36.074Z,17.40
2017-06-26T19:20:03.703Z,17.40
2017-06-26T19:22:31.246Z,17.30
2017-06-26T19:24:58.817Z,17.30
2017-06-26T19:27:26.365Z,17.30
2017-06-26T19:29:53.934Z,17.10
2017-06-26T19:32:21.494Z,17.00
2017-06-26T19:34:49.063Z,16.90
2017-06-26T19:37:16.591Z,16.80
2017-06-26T19:39:44.129Z,16.90
2017-06-26T19:42:12.454Z,16.80
2017-06-26T19:44:40.018Z,16.80
2017-06-26T19:47:07.575Z,16.70
2017-06-26T19:49:35.128Z,16.60
2017-06-26T19:52:02.667Z,16.60
2017-06-26T19:54:30.290Z,16.40
2017-06-26T19:56:57.822Z,16.40
2017-06-26T19:59:25.386Z,16.30
2017-06-26T20:01:52.914Z,16.30
2017-06-26T20:04:20.474Z,16.30
2017-06-26T20:06:48.070Z,16.20
2017-06-26T20:09:15.742Z,16.20
2017-06-26T20:11:43.272Z,16.00
2017-06-26T20:14:10.841Z,16.00
2017-06-26T20:16:38.379Z,16.10
2017-06-26T20:19:05.936Z,15.90
2017-06-26T20:21:33.469Z,15.90
2017-06-26T20:24:01.805Z,15.80
2017-06-26T20:26:29.367Z,15.80
2017-06-26T20:28:57.045Z,15.80
2017-06-26T20:31:24.591Z,15.80
2017-06-26T20:33:52.259Z,15.70
2017-06-26T20:36:19.812Z,15.70
2017-06-26T20:38:47.386Z,15.70
2017-06-26T20:41:14.938Z,15.70
2017-06-26T20:43:42.474Z,15.60
2017-06-26T20:46:10.001Z,15.50
2017-06-26T20:48:37.539Z,15.50
2017-06-26T20:51:05.081Z,15.50
2017-06-26T20:53:32.610Z,15.30
2017-06-26T20:56:00.207Z,15.30
2017-06-26T20:58:27.740Z,15.30
2017-06-26T21:00:55.295Z,15.10
2017-06-26T21:03:22.830Z,15.10
2017-06-26T21:05:51.152Z,15.10
2017-06-26T21:08:18.686Z,15.00
2017-06-26T21:10:46.246Z,15.00
2017-06-26T21:13:13.845Z,15.00
2017-06-26T21:15:41.402Z,15.00
2017-06-26T21:18:08.974Z,15.00
2017-06-26T21:20:36.532Z,14.90
2017-06-26T21:23:04.067Z,14.80
2017-06-26T21:25:31.618Z,14.70
2017-06-26T21:27:59.215Z,14.70
2017-06-26T21:30:26.774Z,14.80
2017-06-26T21:32:54.326Z,14.70
2017-06-26T21:35:21.892Z,14.60
2017-06-26T21:37:49.451Z,14.60
2017-06-26T21:40:17.014Z,14.50
2017-06-26T21:42:44.545Z,14.50
2017-06-26T21:45:12.137Z,14.50
2017-06-26T21:47:39.670Z,14.40
2017-06-26T21:50:07.198Z,14.30
2017-06-26T21:52:35.502Z,14.20
2017-06-26T21:55:03.046Z,14.20
2017-06-26T21:57:31.370Z,14.30
2017-06-26T21:59:58.903Z,14.30
2017-06-26T22:02:26.498Z,14.20
2017-06-26T22:04:54.058Z,14.20
2017-06-26T22:07:21.609Z,14.10
2017-06-26T22:09:49.274Z,14.10
2017-06-26T22:12:16.805Z,14.00
2017-06-26T22:14:44.333Z,14.00
2017-06-26T22:17:11.858Z,13.90
2017-06-26T22:19:39.442Z,13.90
2017-06-26T22:22:06.970Z,13.80
2017-06-26T22:24:34.542Z,13.90
2017-06-26T22:29:55.466Z,13.90
2017-06-26T22:32:23.026Z,13.90
2017-06-26T22:34:50.559Z,13.90
2017-06-26T22:37:18.274Z,13.80
2017-06-26T22:39:45.813Z,13.80
2017-06-26T22:42:13.346Z,13.70
2017-06-26T22:44:40.933Z,13.60
2017-06-26T22:47:08.499Z,13.60
2017-06-26T22:49:36.066Z,13.60
2017-06-26T22:52:03.614Z,13.50
2017-06-26T22:54:31.187Z,13.50
2017-06-26T22:56:58.748Z,13.50
2017-06-26T22:59:26.306Z,13.50
2017-06-26T23:01:53.861Z,13.50
2017-06-26T23:04:21.405Z,13.50
2017-06-26T23:06:48.938Z,13.50
2017-06-26T23:09:16.477Z,13.30
2017-06-26T23:11:44.014Z,13.20
2017-06-26T23:14:11.559Z,13.20
2017-06-26T23:16:39.101Z,13.20
2017-06-26T23:19:06.693Z,13.20
2017-06-26T23:21:34.258Z,13.20
2017-06-26T23:24:01.818Z,13.20
2017-06-26T23:26:29.477Z,13.10
2017-06-26T23:28:57.034Z,13.10
2017-06-26T23:31:24.689Z,13.10
2017-06-26T23:33:52.261Z,13.00
2017-06-26T23:36:19.921Z,13.00
2017-06-26T23:38:47.485Z,13.00
2017-06-26T23:41:15.145Z,12.90
2017-06-26T23:43:42.686Z,13.00
2017-06-26T23:46:10.270Z,12.90
2017-06-26T23:48:37.825Z,12.90
2017-06-26T23:51:05.379Z,12.90
2017-06-26T23:53:32.942Z,12.80
2017-06-26T23:56:00.610Z,12.80
2017-06-26T23:58:28.173Z,12.70
